createdAt,value
2023-02-08T00:01:13.279Z,29.6
2023-02-08T00:06:50.909Z,27.6
2023-02-08T00:12:27.656Z,28.2
2023-02-08T00:18:05.032Z,30.1
2023-02-08T00:23:44.002Z,28.3
2023-02-08T00:29:22.696Z,27.1
2023-02-08T00:34:44.864Z,29.4
2023-02-08T00:40:21.763Z,29.7
2023-02-08T00:46:00.222Z,27.6
2023-02-08T00:51:37.970Z,28.6
2023-02-08T00:57:15.036Z,26.6
2023-02-08T01:02:51.705Z,28.5
2023-02-08T01:08:44.413Z,30.3
2023-02-08T01:19:27.841Z,28
2023-02-08T01:24:50.265Z,29.8
2023-02-08T01:30:12.119Z,28.6
2023-02-08T01:35:34.133Z,27.1
2023-02-08T01:40:56.514Z,29.4
2023-02-08T01:46:34.722Z,30.5
2023-02-08T01:52:11.079Z,27.6
2023-02-08T01:57:48.378Z,28.8
2023-02-08T02:03:26.370Z,30.3
2023-02-08T02:09:02.611Z,27.8
2023-02-08T02:14:40.036Z,28.4
2023-02-08T02:20:17.410Z,30.1
2023-02-08T02:25:56.653Z,28
2023-02-08T02:31:34.302Z,28.1
2023-02-08T02:37:11.896Z,29.9
2023-02-08T02:42:47.818Z,28.3
2023-02-08T02:48:25.241Z,27.6
2023-02-08T02:53:47.022Z,29.3
2023-02-08T02:59:23.334Z,26.6
2023-02-08T03:04:46.182Z,29.4
2023-02-08T03:10:08.488Z,29.7
2023-02-08T03:15:44.149Z,27.4
2023-02-08T03:21:20.511Z,29.1
2023-02-08T03:26:57.556Z,30.4
2023-02-08T03:37:41.709Z,28.3
2023-02-08T03:43:19.207Z,29.9
2023-02-08T03:48:56.005Z,28.3
2023-02-08T03:54:33.256Z,27.6
2023-02-08T04:00:10.642Z,29.6
2023-02-08T04:05:16.399Z,29.4
2023-02-08T04:10:52.723Z,27.4
2023-02-08T04:16:30.159Z,29.3
2023-02-08T04:22:06.461Z,30.4
2023-02-08T04:27:43.102Z,27.6
2023-02-08T04:33:21.596Z,28.8
2023-02-08T04:38:59.098Z,26.6
2023-02-08T04:44:36.231Z,27.3
2023-02-08T04:50:14.606Z,29.4
2023-02-08T04:55:52.369Z,30.4
2023-02-08T05:01:30.021Z,27.6
2023-02-08T05:07:07.850Z,28.9
2023-02-08T05:12:45.291Z,30.1
2023-02-08T05:18:24.497Z,28.3
2023-02-08T05:24:03.322Z,28
2023-02-08T05:29:39.384Z,29.6
2023-02-08T05:35:18.826Z,30.4
2023-02-08T05:40:57.569Z,27.7
2023-02-08T05:46:35.968Z,28.9
2023-02-08T05:51:58.355Z,30.1
2023-02-08T05:57:20.725Z,28.1
2023-02-08T06:02:57.818Z,28.1
2023-02-08T06:08:20.143Z,29.8
2023-02-08T06:13:42.843Z,26.6
2023-02-08T06:19:22.749Z,27.1
2023-02-08T06:25:00.155Z,29.4
2023-02-08T06:30:37.217Z,30.6
2023-02-08T06:36:18.051Z,27.8
2023-02-08T06:41:55.801Z,29.1
2023-02-08T06:47:43.166Z,30.4
2023-02-08T06:53:19.790Z,28.2
2023-02-08T06:58:56.957Z,28.6
2023-02-08T07:04:35.384Z,30.1
2023-02-08T07:10:18.720Z,28.6
2023-02-08T07:15:56.021Z,28.1
2023-02-08T07:21:19.238Z,29.9
2023-02-08T07:26:54.617Z,29.5
2023-02-08T07:32:34.406Z,27.1
2023-02-08T07:38:10.997Z,29.6
2023-02-08T07:43:47.052Z,30.4
2023-02-08T07:49:23.525Z,27.6
2023-02-08T07:55:01.291Z,29.5
2023-02-08T08:00:40.094Z,24
2023-02-08T08:06:28.121Z,28.3
2023-02-08T08:12:06.202Z,30.1
2023-02-08T08:17:29.628Z,28.9
2023-02-08T08:23:06.069Z,28
2023-02-08T08:28:44.840Z,30.1
2023-02-08T08:34:23.908Z,28.9
2023-02-08T08:40:02.126Z,28.1
2023-02-08T08:45:40.132Z,30.1
2023-02-08T08:51:01.099Z,28.6
2023-02-08T08:56:37.991Z,28.4
2023-02-08T09:01:59.962Z,30.4
2023-02-08T09:07:36.858Z,28.5
2023-02-08T09:13:14.429Z,28.6
2023-02-08T09:18:53.557Z,30.4
2023-02-08T09:24:31.289Z,28
2023-02-08T09:29:53.545Z,29.3
2023-02-08T09:35:32.462Z,30.3
2023-02-08T09:41:09.511Z,27.1
2023-02-08T09:46:41.403Z,30.2
2023-02-08T09:52:18.923Z,28.2
2023-02-08T09:57:57.908Z,28.7
2023-02-08T10:03:20.143Z,30.8
2023-02-08T10:14:42.823Z,29.5
2023-02-08T10:20:05.084Z,29.8
2023-02-08T10:25:42.427Z,27.2
2023-02-08T10:31:05.966Z,30.1
2023-02-08T10:36:47.716Z,28.7
2023-02-08T10:42:44.633Z,28.5
2023-02-08T10:48:44.663Z,30.9
2023-02-08T10:54:28.022Z,27.7
2023-02-08T10:59:56.572Z,29.9
2023-02-08T11:05:44.563Z,29.1
2023-02-08T11:11:28.301Z,28.2
2023-02-08T11:17:19.259Z,30.9
2023-02-08T11:23:02.533Z,27.9
2023-02-08T11:28:45.996Z,29.4
2023-02-08T11:34:30.324Z,26.1
2023-02-08T11:40:13.583Z,29.4
2023-02-08T11:45:57.006Z,29.4
2023-02-08T11:51:36.891Z,27
2023-02-08T11:56:59.464Z,30.4
2023-02-08T12:02:21.421Z,28.3
2023-02-08T12:07:28.869Z,28.9
2023-02-08T12:13:05.966Z,31
2023-02-08T12:19:01.672Z,27.4
2023-02-08T12:24:40.146Z,29.6
2023-02-08T12:30:34.347Z,29.2
2023-02-08T12:36:36.650Z,26.4
2023-02-08T12:42:24.160Z,30.4
2023-02-08T12:48:18.474Z,28.1
2023-02-08T12:53:40.485Z,29.2
2023-02-08T12:59:44.873Z,30.7
2023-02-08T13:05:07.029Z,27.6
2023-02-08T13:10:52.236Z,29.9
2023-02-08T13:16:54.766Z,28.8
2023-02-08T13:22:44.963Z,28.1
2023-02-08T13:28:46.249Z,30.3
2023-02-08T13:34:34.558Z,28.9
2023-02-08T13:40:27.177Z,30.3
2023-02-08T13:46:20.625Z,27.8
2023-02-08T13:51:58.933Z,30
2023-02-08T13:57:19.554Z,28.7
2023-02-08T14:02:57.149Z,27.4
2023-02-08T14:08:34.072Z,30.2
2023-02-08T14:19:38.318Z,28.4
2023-02-08T14:25:14.725Z,30.3
2023-02-08T14:30:51.562Z,27.6
2023-02-08T14:36:31.202Z,26.9
2023-02-08T14:42:15.308Z,26.6
2023-02-08T14:47:40.313Z,26.3
2023-02-08T14:53:02.140Z,25.9
2023-02-08T14:58:23.502Z,25.6
2023-02-08T15:04:02.202Z,25.3
2023-02-08T15:09:45.677Z,24.8
2023-02-08T15:15:24.810Z,24.5
2023-02-08T15:21:05.182Z,24.2
2023-02-08T15:26:42.776Z,23.8
2023-02-08T15:32:30.504Z,23.6
2023-02-08T15:38:08.088Z,23.3
2023-02-08T15:43:45.337Z,23
2023-02-08T15:49:23.215Z,22.8
2023-02-08T15:55:00.046Z,22.5
2023-02-08T16:05:56.029Z,34
2023-02-08T16:11:02.373Z,35.6
2023-02-08T16:16:59.272Z,35.4
2023-02-08T16:22:26.232Z,38.9
2023-02-08T16:28:03.823Z,40.1
2023-02-08T16:33:42.836Z,41.4
2023-02-08T16:39:19.871Z,37.8
2023-02-08T16:45:14.187Z,37.3
2023-02-08T16:51:04.088Z,40.1
2023-02-08T16:56:46.247Z,41.4
2023-02-08T17:02:08.929Z,37
2023-02-08T17:07:48.885Z,36.6
2023-02-08T17:13:53.169Z,36.3
2023-02-08T17:19:16.271Z,40.5
2023-02-08T17:24:55.690Z,41.1
2023-02-08T17:30:18.579Z,41.3
2023-02-08T17:35:57.408Z,41.2
2023-02-08T17:41:34.431Z,41
2023-02-08T17:46:56.438Z,41.6
2023-02-08T17:52:33.789Z,41.9
2023-02-08T17:57:58.498Z,41.8
2023-02-08T18:03:41.113Z,37.6
2023-02-08T18:09:19.097Z,41.3
2023-02-08T18:14:56.733Z,39.2
2023-02-08T18:20:35.198Z,41.5
2023-02-08T18:25:57.986Z,39.1
2023-02-08T18:31:36.108Z,41
2023-02-08T18:37:17.140Z,37.3
2023-02-08T18:42:55.120Z,37.1
2023-02-08T18:48:32.764Z,36.7
2023-02-08T18:54:28.172Z,37.4
2023-02-08T18:59:50.332Z,36
2023-02-08T19:05:29.254Z,36.2
2023-02-08T19:11:07.203Z,40.3
2023-02-08T19:16:45.212Z,41.6
2023-02-08T19:22:22.819Z,37.6
2023-02-08T19:27:44.770Z,37.4
2023-02-08T19:33:23.006Z,36.8
2023-02-08T19:39:00.659Z,38.1
2023-02-08T19:44:38.483Z,36.4
2023-02-08T19:50:36.430Z,36.4
2023-02-08T19:55:42.506Z,40.4
2023-02-08T20:01:30.748Z,38.2
2023-02-08T20:07:14.272Z,41.1
2023-02-08T20:13:03.584Z,39
2023-02-08T20:18:44.628Z,42.1
2023-02-08T20:24:29.781Z,42.3
2023-02-08T20:30:07.271Z,42.2
2023-02-08T20:35:50.425Z,42.2
2023-02-08T20:41:39.063Z,42.2
2023-02-08T20:47:16.306Z,42.6
2023-02-08T20:53:09.907Z,42.3
2023-02-08T20:58:47.609Z,38.8
2023-02-08T21:04:19.119Z,39.8
2023-02-08T21:09:56.265Z,37.2
2023-02-08T21:15:35.696Z,37
2023-02-08T21:21:16.299Z,36.8
2023-02-08T21:26:54.050Z,36.2
2023-02-08T21:32:32.930Z,35.7
2023-02-08T21:38:11.943Z,35.1
2023-02-08T21:43:49.717Z,33
2023-02-08T21:49:11.734Z,28.9
2023-02-08T21:54:48.930Z,27.5
2023-02-08T22:00:28.657Z,26.7
2023-02-08T22:05:50.435Z,26.3
2023-02-08T22:11:31.398Z,25.6
2023-02-08T22:17:08.785Z,26.5
2023-02-08T22:22:45.898Z,29.6
2023-02-08T22:28:22.940Z,27.4
2023-02-08T22:34:02.753Z,26.5
2023-02-08T22:39:24.747Z,25.8
2023-02-08T22:45:01.392Z,28.1
2023-02-08T22:50:39.365Z,29
2023-02-08T22:56:16.226Z,27.3
2023-02-08T23:01:53.430Z,26.1
2023-02-08T23:07:30.737Z,25.4
2023-02-08T23:13:08.134Z,29.1
2023-02-08T23:18:45.559Z,28.6
2023-02-08T23:24:25.390Z,27.3
2023-02-08T23:30:02.821Z,28.2
2023-02-08T23:35:24.129Z,30.1
2023-02-08T23:41:01.729Z,27.8
2023-02-08T23:46:39.530Z,27.1
2023-02-08T23:52:01.628Z,29
2023-02-08T23:57:39.552Z,29.6
